Hovedside
METAR-TAF:

METAR-TAF

Lufthavner :

Bromma lufthavn

Stockholm, Sverige

breddegrad: 59-21N, lengdegrad: 017-57E, høyde over havet: 14 m

Gjeldene værobservasjon

Denne rapporten ble laget for 28 minutter siden, klokken 08:20 UTC
Vind 6 kt fra Nord-nordvest
Temperatur 0°C
Luftfuktighet 100%
Trykk 1029 hPa
Sikt: 4000 m
Spredte skyer i en høyde av 500 ft
Brutte skyer i en høyde av 700 ft
lett snø

METAR: ESSB 120820Z 33006KT 4000 -SN SCT005 BKN007 M00/M00 Q1029 R30/29//95

Tid: 09:48 (08:48 UTC)

Varsel

Denne rapporten ble laget for 18 minutter siden, klokken 08:30 UTC
Varsel gyldig fra 12. klokken 09 UTC til 12. klokken 18 UTC
Vind 7 kt fra Nord
Sikt: 9000 m
Brutte skyer i en høyde av 800 ft
lett snø
Midlertidig
fra 12. klokken 09 UTC til 12. klokken 15 UTC
Sikt: 4000 m
Brutte skyer i en høyde av 1500 ft
lett snø

TAF: ESSB 120830Z 1209/1218 36007KT 9000 -SN BKN008 TEMPO 1209/1215 4000 -SN BKN015

Værobservasjoner og værvarsel for over 4000 flyplasser (METAR- og TAF-rapporter).

Tilgjengelige stasjoner er representert av de røde og gule prikkene på kartet.

Hold musepekeren over prikken for å se navnet på stasjonen.

Klikk så for å se værobservasjoner og -varsler.

For å forandre kartet kan du klikke på den grønne knappen med svart kryss for å zoome inn, på den grønne knappen med strek for å zoome ut, eller på de grønne pilene for å se tilstøtende kart.


METAR-TAF: